Time;durP1;ratioP1;P1;durP2;ratioP2;P2;SDS_P1;SDS_P2;PMS_P1;PMS_P2;Temp;Humidity;BMP_temperature;BMP_pressure;BME280_temperature;BME280_humidity;BME280_pressure;Samples;Min_cycle;Max_cycle;Signal;HPM_P1;HPM_P2
2024/01/17 00:01:02;;;;;;;3.80;3.50;;;;;;;;;;5141389;27;20255;-65
2024/01/17 00:03:31;;;;;;;3.92;3.42;;;;;;;;;;5141367;27;20198;-65
2024/01/17 00:05:59;;;;;;;4.55;3.78;;;;;;;;;;5141214;27;20202;-64
2024/01/17 00:08:26;;;;;;;3.80;3.50;;;;;;;;;;5141373;27;20212;-64
2024/01/17 00:10:54;;;;;;;4.25;3.85;;;;;;;;;;5141416;27;20330;-64
2024/01/17 00:13:22;;;;;;;3.72;3.42;;;;;;;;;;5140649;27;20523;-64
2024/01/17 00:15:49;;;;;;;3.30;3.10;;;;;;;;;;5140455;27;20716;-65
2024/01/17 00:18:17;;;;;;;4.20;3.30;;;;;;;;;;5140463;27;20259;-64
2024/01/17 00:20:46;;;;;;;4.35;3.40;;;;;;;;;;5140403;27;20210;-65
2024/01/17 00:23:14;;;;;;;3.40;3.10;;;;;;;;;;5141181;27;20539;-65
2024/01/17 00:25:41;;;;;;;3.92;3.63;;;;;;;;;;5140642;27;20574;-65
2024/01/17 00:28:09;;;;;;;3.95;3.63;;;;;;;;;;5140013;27;20228;-65
2024/01/17 00:30:36;;;;;;;4.03;3.67;;;;;;;;;;5140254;27;20202;-65
2024/01/17 00:33:04;;;;;;;3.58;3.28;;;;;;;;;;5141066;27;20225;-65
2024/01/17 00:35:32;;;;;;;3.50;3.20;;;;;;;;;;5140580;27;20202;-65
2024/01/17 00:38:01;;;;;;;3.80;3.50;;;;;;;;;;5140199;27;20206;-64
2024/01/17 00:40:30;;;;;;;3.65;3.30;;;;;;;;;;5140190;27;20202;-65
2024/01/17 00:42:58;;;;;;;3.70;3.40;;;;;;;;;;5139919;27;20199;-64
2024/01/17 00:45:26;;;;;;;3.70;3.40;;;;;;;;;;5139717;27;20206;-65
2024/01/17 00:47:53;;;;;;;3.20;2.92;;;;;;;;;;5140301;27;20203;-65
2024/01/17 00:50:20;;;;;;;3.50;3.20;;;;;;;;;;5141333;27;20626;-65
2024/01/17 00:52:48;;;;;;;3.42;3.13;;;;;;;;;;5140161;27;20268;-65
2024/01/17 00:55:18;;;;;;;3.30;3.00;;;;;;;;;;5140171;27;20574;-64
2024/01/17 00:57:45;;;;;;;3.50;3.20;;;;;;;;;;5139831;27;20225;-64
2024/01/17 01:00:13;;;;;;;3.30;3.00;;;;;;;;;;5129303;27;20575;-65
2024/01/17 01:02:42;;;;;;;3.25;2.95;;;;;;;;;;5119485;28;20202;-65
2024/01/17 01:05:10;;;;;;;3.17;2.88;;;;;;;;;;5119892;28;20260;-64
2024/01/17 01:07:38;;;;;;;4.13;3.00;;;;;;;;;;5119028;28;20222;-64
2024/01/17 01:10:06;;;;;;;3.47;3.17;;;;;;;;;;5119644;28;20202;-64
2024/01/17 01:12:35;;;;;;;3.10;2.88;;;;;;;;;;5118887;28;20226;-64
2024/01/17 01:15:03;;;;;;;3.42;3.13;;;;;;;;;;5119082;28;20203;-64
2024/01/17 01:17:30;;;;;;;3.40;3.10;;;;;;;;;;5119351;28;20310;-65
2024/01/17 01:19:58;;;;;;;3.55;2.88;;;;;;;;;;5119209;28;20211;-64
2024/01/17 01:22:25;;;;;;;3.05;2.70;;;;;;;;;;5119310;28;20636;-64
2024/01/17 01:24:53;;;;;;;2.90;2.70;;;;;;;;;;5119026;28;20301;-64
2024/01/17 01:27:20;;;;;;;3.17;2.88;;;;;;;;;;5118481;28;20234;-64
2024/01/17 01:29:49;;;;;;;2.97;2.78;;;;;;;;;;5119273;28;20207;-64
2024/01/17 01:32:17;;;;;;;2.83;2.63;;;;;;;;;;5118698;28;20203;-64
2024/01/17 01:34:44;;;;;;;3.35;3.00;;;;;;;;;;5118792;28;20238;-64
2024/01/17 01:37:12;;;;;;;3.13;2.63;;;;;;;;;;5118826;28;20203;-64
2024/01/17 01:39:39;;;;;;;2.95;2.70;;;;;;;;;;5118803;28;20210;-64
2024/01/17 01:42:07;;;;;;;3.78;2.85;;;;;;;;;;5119103;28;20249;-65
2024/01/17 01:44:34;;;;;;;3.22;2.92;;;;;;;;;;5118817;28;20233;-64
2024/01/17 01:47:03;;;;;;;3.33;3.03;;;;;;;;;;5119012;28;20489;-64
2024/01/17 01:49:32;;;;;;;3.20;2.90;;;;;;;;;;5118664;28;20207;-64
2024/01/17 01:51:59;;;;;;;3.00;2.60;;;;;;;;;;5118934;28;20643;-64
2024/01/17 01:54:27;;;;;;;3.20;2.92;;;;;;;;;;5117922;28;20295;-64
2024/01/17 01:56:56;;;;;;;3.50;3.20;;;;;;;;;;5118390;28;20203;-64
2024/01/17 01:59:23;;;;;;;3.00;2.80;;;;;;;;;;5121445;27;20234;-64
2024/01/17 02:01:51;;;;;;;3.38;3.08;;;;;;;;;;5139132;27;20281;-65
2024/01/17 02:04:20;;;;;;;3.40;3.10;;;;;;;;;;5138741;27;20202;-64
2024/01/17 02:06:48;;;;;;;3.03;2.72;;;;;;;;;;5138972;27;20579;-64
2024/01/17 02:09:16;;;;;;;3.55;2.92;;;;;;;;;;5139532;27;20210;-64
2024/01/17 02:11:44;;;;;;;2.92;2.60;;;;;;;;;;5137721;27;20289;-64
2024/01/17 02:14:12;;;;;;;2.70;2.50;;;;;;;;;;5138478;27;20242;-64
2024/01/17 02:16:40;;;;;;;3.70;3.30;;;;;;;;;;5138982;27;20198;-64
2024/01/17 02:19:10;;;;;;;3.47;3.05;;;;;;;;;;5139631;27;20224;-64
2024/01/17 02:21:39;;;;;;;2.85;2.53;;;;;;;;;;5137645;27;20237;-64
2024/01/17 02:24:17;;;;;;;3.13;2.83;;;;;;;;;;5138648;27;20380;-64
2024/01/17 02:26:45;;;;;;;3.10;2.55;;;;;;;;;;5138102;27;20666;-64
2024/01/17 02:29:13;;;;;;;2.67;2.47;;;;;;;;;;5138374;27;20203;-64
2024/01/17 02:31:41;;;;;;;3.08;2.80;;;;;;;;;;5137915;27;20206;-64
2024/01/17 02:34:09;;;;;;;3.22;2.92;;;;;;;;;;5138535;27;20237;-65
2024/01/17 02:36:37;;;;;;;3.10;2.80;;;;;;;;;;5137898;27;20202;-64
2024/01/17 02:39:05;;;;;;;3.55;3.00;;;;;;;;;;5138034;27;20285;-64
2024/01/17 02:41:34;;;;;;;3.40;3.10;;;;;;;;;;5137667;27;20233;-65
2024/01/17 02:44:02;;;;;;;3.00;2.72;;;;;;;;;;5137987;27;20474;-65
2024/01/17 02:46:30;;;;;;;3.55;3.25;;;;;;;;;;5138491;27;20293;-64
2024/01/17 02:48:58;;;;;;;3.25;2.95;;;;;;;;;;5138309;27;20251;-64
2024/01/17 02:51:25;;;;;;;3.30;3.00;;;;;;;;;;5138174;27;20289;-64
2024/01/17 02:53:53;;;;;;;2.90;2.40;;;;;;;;;;5137785;27;20560;-64
2024/01/17 02:56:21;;;;;;;3.22;2.60;;;;;;;;;;5138282;27;20202;-64
2024/01/17 02:58:50;;;;;;;3.40;2.88;;;;;;;;;;5136836;27;20206;-64
2024/01/17 03:01:18;;;;;;;3.35;3.05;;;;;;;;;;5137036;27;20562;-64
2024/01/17 03:03:45;;;;;;;3.10;2.80;;;;;;;;;;5137888;27;20263;-65
2024/01/17 03:06:13;;;;;;;2.90;2.50;;;;;;;;;;5137885;27;20459;-64
2024/01/17 03:08:41;;;;;;;2.88;2.65;;;;;;;;;;5137131;27;20214;-64
2024/01/17 03:11:09;;;;;;;3.45;2.83;;;;;;;;;;5136998;27;20213;-64
2024/01/17 03:13:37;;;;;;;3.17;2.65;;;;;;;;;;5137031;27;20274;-64
2024/01/17 03:16:07;;;;;;;3.10;2.80;;;;;;;;;;5137598;27;20213;-64
2024/01/17 03:18:34;;;;;;;3.00;2.70;;;;;;;;;;5137163;27;20202;-64
2024/01/17 03:21:05;;;;;;;3.20;2.90;;;;;;;;;;5137288;27;20203;-64
2024/01/17 03:23:33;;;;;;;2.70;2.50;;;;;;;;;;5137499;27;20206;-65
2024/01/17 03:26:01;;;;;;;3.40;3.10;;;;;;;;;;5137788;27;20470;-65
2024/01/17 03:28:29;;;;;;;2.90;2.70;;;;;;;;;;5137489;27;20586;-65
2024/01/17 03:30:56;;;;;;;3.05;2.75;;;;;;;;;;5136955;27;20318;-64
2024/01/17 03:33:25;;;;;;;3.60;3.30;;;;;;;;;;5136226;27;20222;-64
2024/01/17 03:35:53;;;;;;;3.28;2.97;;;;;;;;;;5136619;27;20202;-64
2024/01/17 03:38:21;;;;;;;3.28;2.80;;;;;;;;;;5137882;27;20213;-64
2024/01/17 03:40:49;;;;;;;3.10;2.83;;;;;;;;;;5137186;27;20210;-64
2024/01/17 03:43:17;;;;;;;2.97;2.67;;;;;;;;;;5137039;27;20478;-64
2024/01/17 03:45:45;;;;;;;2.83;2.63;;;;;;;;;;5136705;28;20555;-64
2024/01/17 03:48:12;;;;;;;3.13;2.72;;;;;;;;;;5136949;28;20241;-64
2024/01/17 03:50:41;;;;;;;3.67;2.83;;;;;;;;;;5137208;27;20203;-65
2024/01/17 03:53:09;;;;;;;2.67;2.47;;;;;;;;;;5136418;27;20230;-65
2024/01/17 03:55:37;;;;;;;3.42;2.97;;;;;;;;;;5137109;28;20296;-65
2024/01/17 03:58:05;;;;;;;3.35;3.05;;;;;;;;;;5137626;27;20381;-64
2024/01/17 04:00:33;;;;;;;3.15;2.85;;;;;;;;;;5136027;28;20244;-64
2024/01/17 04:03:01;;;;;;;3.65;3.10;;;;;;;;;;5136896;27;20490;-64
2024/01/17 04:05:29;;;;;;;3.20;2.88;;;;;;;;;;5136575;28;20206;-64
2024/01/17 04:07:58;;;;;;;3.40;2.85;;;;;;;;;;5136206;27;20603;-64
2024/01/17 04:10:26;;;;;;;3.30;3.00;;;;;;;;;;5136163;28;20201;-64
2024/01/17 04:12:54;;;;;;;3.35;3.05;;;;;;;;;;5136698;27;20212;-64
2024/01/17 04:15:21;;;;;;;3.00;2.70;;;;;;;;;;5136691;28;20278;-64
2024/01/17 04:17:49;;;;;;;3.40;2.90;;;;;;;;;;5136438;27;20202;-65
2024/01/17 04:20:17;;;;;;;3.42;3.13;;;;;;;;;;5136411;27;20202;-64
2024/01/17 04:22:45;;;;;;;3.45;2.78;;;;;;;;;;5119262;28;20198;-65
2024/01/17 04:25:15;;;;;;;3.10;2.72;;;;;;;;;;5136720;27;20190;-64
2024/01/17 04:27:42;;;;;;;3.20;2.90;;;;;;;;;;5135498;27;20241;-64
2024/01/17 04:30:14;;;;;;;3.28;2.97;;;;;;;;;;5136152;28;20210;-65
2024/01/17 04:32:42;;;;;;;3.30;2.70;;;;;;;;;;5135884;28;20634;-64
2024/01/17 04:35:11;;;;;;;4.00;3.10;;;;;;;;;;5135930;27;20262;-64
2024/01/17 04:37:40;;;;;;;3.00;2.75;;;;;;;;;;5136722;28;20365;-64
2024/01/17 04:40:09;;;;;;;3.05;2.63;;;;;;;;;;5136246;27;20210;-64
2024/01/17 04:42:38;;;;;;;3.80;3.33;;;;;;;;;;5136074;28;20202;-64
2024/01/17 04:45:06;;;;;;;3.17;2.90;;;;;;;;;;5137288;27;20263;-64
2024/01/17 04:47:33;;;;;;;3.25;2.95;;;;;;;;;;5139991;27;20271;-65
2024/01/17 04:50:01;;;;;;;3.20;2.90;;;;;;;;;;5139488;27;20202;-64
2024/01/17 04:52:28;;;;;;;3.20;2.70;;;;;;;;;;5139501;27;20213;-64
2024/01/17 04:54:56;;;;;;;4.70;3.20;;;;;;;;;;5138786;27;20236;-64
2024/01/17 04:57:23;;;;;;;4.93;3.63;;;;;;;;;;5139421;27;20214;-64
2024/01/17 04:59:52;;;;;;;3.78;3.13;;;;;;;;;;5138853;27;20602;-65
2024/01/17 05:02:19;;;;;;;3.30;3.00;;;;;;;;;;5139151;27;20209;-64
2024/01/17 05:04:47;;;;;;;3.28;2.90;;;;;;;;;;5130992;27;20527;-64
2024/01/17 05:07:14;;;;;;;3.65;3.30;;;;;;;;;;5139563;27;20214;-64
2024/01/17 05:09:41;;;;;;;3.67;3.25;;;;;;;;;;5138858;27;20214;-64
2024/01/17 05:12:09;;;;;;;3.58;3.28;;;;;;;;;;5138615;27;20530;-64
2024/01/17 05:14:36;;;;;;;3.45;3.15;;;;;;;;;;5138487;27;20226;-64
2024/01/17 05:17:05;;;;;;;3.40;3.10;;;;;;;;;;5138534;27;20308;-64
2024/01/17 05:19:32;;;;;;;3.20;2.90;;;;;;;;;;5139087;27;20206;-64
2024/01/17 05:22:00;;;;;;;3.30;3.00;;;;;;;;;;5139181;27;20221;-64
2024/01/17 05:24:27;;;;;;;3.40;3.10;;;;;;;;;;5138174;27;20208;-64
2024/01/17 05:26:54;;;;;;;3.28;2.97;;;;;;;;;;5137555;27;20609;-65
2024/01/17 05:29:22;;;;;;;3.20;2.90;;;;;;;;;;5138234;27;20202;-64
2024/01/17 05:31:49;;;;;;;3.55;3.05;;;;;;;;;;5138014;27;20212;-64
2024/01/17 05:34:18;;;;;;;3.28;2.97;;;;;;;;;;5137786;27;20218;-64
2024/01/17 05:36:45;;;;;;;3.58;2.88;;;;;;;;;;5137498;27;20214;-64
2024/01/17 05:39:13;;;;;;;3.78;3.10;;;;;;;;;;5137579;27;20203;-65
2024/01/17 05:41:40;;;;;;;4.75;3.50;;;;;;;;;;5137751;27;20299;-64
2024/01/17 05:44:08;;;;;;;3.60;3.30;;;;;;;;;;5135924;27;20199;-65
2024/01/17 05:46:35;;;;;;;3.60;3.30;;;;;;;;;;5137059;27;20202;-64
2024/01/17 05:49:02;;;;;;;3.63;3.33;;;;;;;;;;5137337;27;20206;-64
2024/01/17 05:51:31;;;;;;;3.33;3.03;;;;;;;;;;5137229;27;20465;-64
2024/01/17 05:53:59;;;;;;;3.85;3.28;;;;;;;;;;5136885;27;20218;-64
2024/01/17 05:56:26;;;;;;;3.30;3.00;;;;;;;;;;5135343;27;20499;-64
2024/01/17 05:58:54;;;;;;;3.65;3.20;;;;;;;;;;5136243;27;20202;-64
2024/01/17 06:01:22;;;;;;;3.85;3.50;;;;;;;;;;5136117;27;20282;-64
2024/01/17 06:03:50;;;;;;;3.72;3.30;;;;;;;;;;5135544;27;20209;-64
2024/01/17 06:06:17;;;;;;;3.78;3.25;;;;;;;;;;5136509;27;20230;-64
2024/01/17 06:08:46;;;;;;;3.85;3.22;;;;;;;;;;5134581;27;20210;-64
2024/01/17 06:11:13;;;;;;;3.75;3.30;;;;;;;;;;5135451;27;20458;-64
2024/01/17 06:13:41;;;;;;;3.50;3.20;;;;;;;;;;5134364;27;20217;-64
2024/01/17 06:16:08;;;;;;;3.45;3.15;;;;;;;;;;5134468;27;20221;-64
2024/01/17 06:18:36;;;;;;;3.70;3.40;;;;;;;;;;5134217;27;20456;-64
2024/01/17 06:21:03;;;;;;;3.92;3.47;;;;;;;;;;5134610;27;20234;-64
2024/01/17 06:23:30;;;;;;;3.67;3.00;;;;;;;;;;5134345;27;20229;-64
2024/01/17 06:25:59;;;;;;;3.78;3.47;;;;;;;;;;5134900;27;20194;-65
2024/01/17 06:28:26;;;;;;;4.78;3.20;;;;;;;;;;5135169;27;20237;-65
2024/01/17 06:30:54;;;;;;;3.45;3.15;;;;;;;;;;5135098;27;20206;-64
2024/01/17 06:33:21;;;;;;;3.50;3.20;;;;;;;;;;5134865;27;20203;-64
2024/01/17 06:35:50;;;;;;;3.42;3.13;;;;;;;;;;5133670;27;20233;-64
2024/01/17 06:38:17;;;;;;;4.13;3.40;;;;;;;;;;5134848;27;20307;-64
2024/01/17 06:40:45;;;;;;;3.50;3.20;;;;;;;;;;5135798;27;20206;-64
2024/01/17 06:43:13;;;;;;;3.75;3.45;;;;;;;;;;5134600;27;20613;-64
2024/01/17 06:45:41;;;;;;;3.70;3.40;;;;;;;;;;5134851;27;20202;-64
2024/01/17 06:48:09;;;;;;;4.53;3.22;;;;;;;;;;5133613;27;20202;-64
2024/01/17 06:50:36;;;;;;;3.60;3.30;;;;;;;;;;5132935;27;20220;-64
2024/01/17 06:53:04;;;;;;;3.30;3.00;;;;;;;;;;5134283;27;20202;-64
2024/01/17 06:55:31;;;;;;;3.40;3.10;;;;;;;;;;5134544;27;20221;-64
2024/01/17 06:57:58;;;;;;;3.10;2.88;;;;;;;;;;5134903;27;20202;-64
2024/01/17 07:00:28;;;;;;;3.38;3.08;;;;;;;;;;5133965;27;20243;-64
2024/01/17 07:02:55;;;;;;;3.90;3.42;;;;;;;;;;5134174;27;20237;-64
2024/01/17 07:05:23;;;;;;;3.60;3.05;;;;;;;;;;5134427;27;20528;-64
2024/01/17 07:07:50;;;;;;;3.50;2.95;;;;;;;;;;5134345;27;20455;-64
2024/01/17 07:10:17;;;;;;;4.82;3.33;;;;;;;;;;5134414;27;20202;-64
2024/01/17 07:12:44;;;;;;;3.28;2.97;;;;;;;;;;5134312;27;20203;-64
2024/01/17 07:15:12;;;;;;;3.20;2.90;;;;;;;;;;5135891;27;20218;-64
2024/01/17 07:17:40;;;;;;;3.80;3.40;;;;;;;;;;5136783;27;20638;-64
2024/01/17 07:20:10;;;;;;;3.50;3.10;;;;;;;;;;5135182;27;20494;-64
2024/01/17 07:22:41;;;;;;;3.80;3.20;;;;;;;;;;5134720;27;20202;-64
2024/01/17 07:25:10;;;;;;;4.35;3.03;;;;;;;;;;5134444;27;20206;-64
2024/01/17 07:27:37;;;;;;;3.45;3.15;;;;;;;;;;5134842;27;20279;-64
2024/01/17 07:30:05;;;;;;;3.95;3.20;;;;;;;;;;5133446;27;20202;-64
2024/01/17 07:32:33;;;;;;;3.83;3.40;;;;;;;;;;5134138;27;20241;-64
2024/01/17 07:35:01;;;;;;;3.38;2.83;;;;;;;;;;5135009;27;20512;-64
2024/01/17 07:37:31;;;;;;;3.40;3.10;;;;;;;;;;5135039;27;20578;-64
2024/01/17 07:39:58;;;;;;;3.50;3.20;;;;;;;;;;5134696;27;20208;-64
2024/01/17 07:42:25;;;;;;;3.78;3.28;;;;;;;;;;5132386;27;20213;-64
2024/01/17 07:44:53;;;;;;;3.88;3.50;;;;;;;;;;5131913;27;20650;-64
2024/01/17 07:47:20;;;;;;;4.22;3.30;;;;;;;;;;5132592;28;20216;-64
2024/01/17 07:49:48;;;;;;;3.53;3.22;;;;;;;;;;5133085;28;20202;-64
2024/01/17 07:52:17;;;;;;;3.38;3.08;;;;;;;;;;5132699;28;20310;-64
2024/01/17 07:54:44;;;;;;;5.43;3.40;;;;;;;;;;5134197;27;20637;-64
2024/01/17 07:57:12;;;;;;;3.40;2.92;;;;;;;;;;5134658;28;20217;-64
2024/01/17 07:59:39;;;;;;;3.67;3.33;;;;;;;;;;5134142;27;20244;-64
2024/01/17 08:02:07;;;;;;;3.90;3.15;;;;;;;;;;5133514;27;20202;-64
2024/01/17 08:04:34;;;;;;;3.42;2.85;;;;;;;;;;5133319;28;20202;-64
2024/01/17 08:07:02;;;;;;;4.35;3.25;;;;;;;;;;5133560;27;20206;-64
2024/01/17 08:09:33;;;;;;;3.63;3.15;;;;;;;;;;5133922;27;20520;-64
2024/01/17 08:12:00;;;;;;;3.20;2.90;;;;;;;;;;5135001;27;20209;-64
2024/01/17 08:14:28;;;;;;;3.60;3.30;;;;;;;;;;5134310;27;20236;-64
2024/01/17 08:16:55;;;;;;;3.05;2.72;;;;;;;;;;5134260;28;20202;-64
2024/01/17 08:19:23;;;;;;;3.00;2.80;;;;;;;;;;5133961;27;20194;-64
2024/01/17 08:21:53;;;;;;;3.45;3.00;;;;;;;;;;5137900;27;20274;-64
2024/01/17 08:24:20;;;;;;;3.80;3.17;;;;;;;;;;5136968;27;20530;-64
2024/01/17 08:26:49;;;;;;;3.55;3.00;;;;;;;;;;5137230;27;20212;-64
2024/01/17 08:29:18;;;;;;;3.42;3.13;;;;;;;;;;5136834;27;20206;-64
2024/01/17 08:31:45;;;;;;;3.55;3.10;;;;;;;;;;5137749;27;20198;-64
2024/01/17 08:34:13;;;;;;;3.05;2.83;;;;;;;;;;5137443;27;20570;-64
2024/01/17 08:36:40;;;;;;;3.28;2.97;;;;;;;;;;5137338;27;20284;-64
2024/01/17 08:39:07;;;;;;;3.90;3.20;;;;;;;;;;5137582;27;20601;-64
2024/01/17 08:41:35;;;;;;;3.78;3.00;;;;;;;;;;5137599;27;20217;-64
2024/01/17 08:44:04;;;;;;;3.30;3.00;;;;;;;;;;5136942;27;20446;-64
2024/01/17 08:46:31;;;;;;;5.03;2.90;;;;;;;;;;5137409;27;20198;-64
2024/01/17 08:48:58;;;;;;;2.90;2.70;;;;;;;;;;5137411;27;20208;-64
2024/01/17 08:51:26;;;;;;;3.10;2.80;;;;;;;;;;5137594;27;20213;-64
2024/01/17 08:53:53;;;;;;;3.17;2.85;;;;;;;;;;5137701;27;20202;-64
2024/01/17 08:56:21;;;;;;;3.08;2.78;;;;;;;;;;5136985;27;20225;-64
2024/01/17 08:58:48;;;;;;;3.30;3.00;;;;;;;;;;5137691;27;20217;-64
2024/01/17 09:01:17;;;;;;;3.00;2.75;;;;;;;;;;5137591;27;20250;-64
2024/01/17 09:03:44;;;;;;;3.63;3.03;;;;;;;;;;5137685;27;20194;-64
2024/01/17 09:06:12;;;;;;;3.25;2.95;;;;;;;;;;5138173;27;20209;-64
2024/01/17 09:08:39;;;;;;;3.13;2.83;;;;;;;;;;5138581;27;20639;-64
2024/01/17 09:11:08;;;;;;;3.13;2.83;;;;;;;;;;5137242;27;20203;-64
2024/01/17 09:13:35;;;;;;;3.78;2.97;;;;;;;;;;5136973;27;20625;-64
2024/01/17 09:16:03;;;;;;;2.97;2.67;;;;;;;;;;5136870;27;20625;-64
2024/01/17 09:18:31;;;;;;;3.08;2.78;;;;;;;;;;5137222;27;20194;-64
2024/01/17 09:20:59;;;;;;;2.83;2.63;;;;;;;;;;5137472;27;20212;-65
2024/01/17 09:23:26;;;;;;;2.78;2.58;;;;;;;;;;5135714;27;20210;-64
2024/01/17 09:25:54;;;;;;;3.28;2.97;;;;;;;;;;5136516;27;20213;-64
2024/01/17 09:28:21;;;;;;;2.88;2.67;;;;;;;;;;5136967;27;20202;-64
2024/01/17 09:30:48;;;;;;;2.83;2.63;;;;;;;;;;5136088;27;20317;-64
2024/01/17 09:33:16;;;;;;;2.90;2.70;;;;;;;;;;5137096;27;20216;-65
2024/01/17 09:35:45;;;;;;;2.88;2.60;;;;;;;;;;5136967;27;20581;-64
2024/01/17 09:38:14;;;;;;;2.92;2.72;;;;;;;;;;5137270;27;20674;-65
2024/01/17 09:40:43;;;;;;;2.63;2.42;;;;;;;;;;5136549;27;20310;-65
2024/01/17 09:43:11;;;;;;;3.05;2.75;;;;;;;;;;5136831;27;20233;-64
2024/01/17 09:45:39;;;;;;;2.85;2.60;;;;;;;;;;5137325;27;20199;-64
2024/01/17 09:48:08;;;;;;;3.20;2.90;;;;;;;;;;5136609;27;20198;-64
2024/01/17 09:50:35;;;;;;;3.58;2.65;;;;;;;;;;5136045;27;20213;-64
2024/01/17 09:53:07;;;;;;;3.33;2.80;;;;;;;;;;5136340;27;20213;-64
2024/01/17 09:55:37;;;;;;;2.92;2.65;;;;;;;;;;5136232;27;20501;-64
2024/01/17 09:58:06;;;;;;;2.75;2.50;;;;;;;;;;5135779;27;20218;-64
2024/01/17 10:00:34;;;;;;;3.08;2.60;;;;;;;;;;5135595;27;20242;-64
2024/01/17 10:03:04;;;;;;;2.88;2.55;;;;;;;;;;5134885;27;20240;-64
2024/01/17 10:05:31;;;;;;;2.75;2.55;;;;;;;;;;5135753;27;20206;-64
2024/01/17 10:08:00;;;;;;;3.75;2.83;;;;;;;;;;5135265;27;20570;-64
2024/01/17 10:10:28;;;;;;;2.95;2.55;;;;;;;;;;5135325;27;20194;-64
2024/01/17 10:12:56;;;;;;;3.20;2.70;;;;;;;;;;5135247;27;20194;-64
2024/01/17 10:15:24;;;;;;;3.30;2.97;;;;;;;;;;5135440;27;20225;-65
2024/01/17 10:17:51;;;;;;;2.67;2.47;;;;;;;;;;5135049;27;20486;-64
2024/01/17 10:20:19;;;;;;;3.97;2.78;;;;;;;;;;5135134;27;20217;-64
2024/01/17 10:22:47;;;;;;;3.45;2.75;;;;;;;;;;5135467;27;20396;-64
2024/01/17 10:25:14;;;;;;;3.10;2.75;;;;;;;;;;5134758;27;20283;-64
2024/01/17 10:27:43;;;;;;;2.80;2.58;;;;;;;;;;5135867;27;20577;-64
2024/01/17 10:30:11;;;;;;;3.00;2.72;;;;;;;;;;5133906;27;20201;-64
2024/01/17 10:32:41;;;;;;;2.58;2.38;;;;;;;;;;5135368;27;20620;-64
2024/01/17 10:35:10;;;;;;;2.90;2.70;;;;;;;;;;5135150;27;20716;-64
2024/01/17 10:37:38;;;;;;;3.00;2.70;;;;;;;;;;5135109;27;20731;-64
2024/01/17 10:40:11;;;;;;;3.53;2.90;;;;;;;;;;5134521;27;20210;-64
2024/01/17 10:42:40;;;;;;;3.33;2.60;;;;;;;;;;5134878;27;20796;-64
2024/01/17 10:45:20;;;;;;;2.90;2.60;;;;;;;;;;5134746;27;20300;-64
2024/01/17 10:47:48;;;;;;;2.70;2.50;;;;;;;;;;5126184;27;20202;-65
2024/01/17 10:50:16;;;;;;;3.58;2.47;;;;;;;;;;5134810;27;20625;-64
2024/01/17 10:52:44;;;;;;;3.63;2.67;;;;;;;;;;5134403;27;20198;-64
2024/01/17 10:55:13;;;;;;;2.60;2.40;;;;;;;;;;5132909;27;20262;-64
2024/01/17 10:57:42;;;;;;;3.15;2.75;;;;;;;;;;5133409;27;20566;-64
2024/01/17 11:00:16;;;;;;;4.40;3.22;;;;;;;;;;5134664;27;20230;-64
2024/01/17 11:02:44;;;;;;;3.45;2.95;;;;;;;;;;5134403;27;20241;-64
2024/01/17 11:05:12;;;;;;;3.33;2.78;;;;;;;;;;5134151;27;20565;-64
2024/01/17 11:07:41;;;;;;;2.95;2.65;;;;;;;;;;5133769;27;20214;-64
2024/01/17 11:10:09;;;;;;;2.95;2.60;;;;;;;;;;5133771;27;20308;-64
2024/01/17 11:12:37;;;;;;;3.03;2.53;;;;;;;;;;5133718;27;20210;-64
2024/01/17 11:15:06;;;;;;;2.35;2.15;;;;;;;;;;5134550;27;20209;-64
2024/01/17 11:17:36;;;;;;;3.60;2.40;;;;;;;;;;5134658;27;20218;-64
2024/01/17 11:20:08;;;;;;;2.55;2.35;;;;;;;;;;5134468;27;20194;-64
2024/01/17 11:22:37;;;;;;;3.42;2.70;;;;;;;;;;5133640;27;20202;-64
2024/01/17 11:25:10;;;;;;;2.53;2.33;;;;;;;;;;5134396;27;20652;-64
2024/01/17 11:27:40;;;;;;;2.80;2.60;;;;;;;;;;5133969;27;20202;-64
2024/01/17 11:30:15;;;;;;;2.60;2.38;;;;;;;;;;5133786;27;20469;-64
2024/01/17 11:32:50;;;;;;;2.83;2.42;;;;;;;;;;5133916;27;20596;-64
2024/01/17 11:35:32;;;;;;;3.53;2.90;;;;;;;;;;5132496;27;20221;-64
2024/01/17 11:38:02;;;;;;;2.88;2.65;;;;;;;;;;5132500;27;20341;-64
2024/01/17 11:40:29;;;;;;;2.65;2.45;;;;;;;;;;5134461;27;20281;-65
2024/01/17 11:42:57;;;;;;;3.50;2.60;;;;;;;;;;5134650;27;20198;-64
2024/01/17 11:45:24;;;;;;;2.97;2.67;;;;;;;;;;5134057;27;20202;-65
2024/01/17 11:47:57;;;;;;;2.92;2.50;;;;;;;;;;5132646;27;20202;-64
2024/01/17 11:50:24;;;;;;;2.60;2.40;;;;;;;;;;5133910;27;20467;-65
2024/01/17 11:52:53;;;;;;;2.60;2.40;;;;;;;;;;5133116;27;20202;-64
2024/01/17 11:55:21;;;;;;;3.03;2.70;;;;;;;;;;5135825;27;20199;-64
2024/01/17 11:57:48;;;;;;;2.50;2.30;;;;;;;;;;5138115;27;20200;-64
2024/01/17 12:00:20;;;;;;;2.88;2.67;;;;;;;;;;5137535;27;20321;-64
2024/01/17 12:02:48;;;;;;;3.08;2.47;;;;;;;;;;5137907;27;20213;-64
2024/01/17 12:05:16;;;;;;;2.90;2.60;;;;;;;;;;5137712;27;20202;-64
2024/01/17 12:07:47;;;;;;;3.13;2.60;;;;;;;;;;5138727;27;20194;-64
2024/01/17 12:10:14;;;;;;;3.13;2.78;;;;;;;;;;5137497;27;20194;-64
2024/01/17 12:12:42;;;;;;;2.83;2.63;;;;;;;;;;5137320;27;20229;-64
2024/01/17 12:15:10;;;;;;;2.67;2.47;;;;;;;;;;5136420;27;20585;-64
2024/01/17 12:17:38;;;;;;;2.72;2.47;;;;;;;;;;5136548;27;20313;-64
2024/01/17 12:20:06;;;;;;;2.75;2.50;;;;;;;;;;5136254;27;20233;-64
2024/01/17 12:22:35;;;;;;;3.05;2.75;;;;;;;;;;5137106;27;20575;-64
2024/01/17 12:25:03;;;;;;;3.30;2.80;;;;;;;;;;5138305;27;20579;-64
2024/01/17 12:27:31;;;;;;;2.67;2.47;;;;;;;;;;5136282;27;20574;-64
2024/01/17 12:30:02;;;;;;;2.70;2.50;;;;;;;;;;5136743;27;20194;-64
2024/01/17 12:32:29;;;;;;;2.42;2.22;;;;;;;;;;5136888;27;20283;-64
2024/01/17 12:34:57;;;;;;;2.63;2.42;;;;;;;;;;5137349;27;20202;-64
2024/01/17 12:37:24;;;;;;;2.47;2.22;;;;;;;;;;5137795;27;20257;-64
2024/01/17 12:39:55;;;;;;;2.88;2.58;;;;;;;;;;5137590;27;20194;-64
2024/01/17 12:42:21;;;;;;;2.50;2.30;;;;;;;;;;5137007;27;20202;-64
2024/01/17 12:44:49;;;;;;;2.63;2.42;;;;;;;;;;5137898;27;20198;-64
2024/01/17 12:47:16;;;;;;;2.88;2.60;;;;;;;;;;5136325;27;20210;-64
2024/01/17 12:49:46;;;;;;;2.90;2.60;;;;;;;;;;5136403;27;20210;-64
2024/01/17 12:52:17;;;;;;;3.60;2.75;;;;;;;;;;5136117;27;20203;-64
2024/01/17 12:54:45;;;;;;;2.88;2.67;;;;;;;;;;5138282;27;20203;-64
2024/01/17 12:57:13;;;;;;;2.58;2.33;;;;;;;;;;5137621;27;20218;-64
2024/01/17 12:59:41;;;;;;;2.65;2.42;;;;;;;;;;5130598;27;20646;-64
2024/01/17 13:02:14;;;;;;;2.40;2.20;;;;;;;;;;5116322;28;20218;-65
2024/01/17 13:04:41;;;;;;;2.65;2.20;;;;;;;;;;5115906;28;20207;-64
2024/01/17 13:07:09;;;;;;;2.38;2.17;;;;;;;;;;5114428;28;20210;-64
2024/01/17 13:09:36;;;;;;;2.63;2.42;;;;;;;;;;5115162;28;20203;-64
2024/01/17 13:12:05;;;;;;;4.43;4.03;;;;;;;;;;5116243;28;20199;-65
2024/01/17 13:14:34;;;;;;;8.38;7.65;;;;;;;;;;5117183;28;20268;-64
2024/01/17 13:17:03;;;;;;;7.88;7.18;;;;;;;;;;5115875;28;20314;-65
2024/01/17 13:19:31;;;;;;;7.60;6.90;;;;;;;;;;5116195;28;20214;-64
2024/01/17 13:21:58;;;;;;;7.60;6.90;;;;;;;;;;5116685;28;20268;-64
2024/01/17 13:24:25;;;;;;;7.75;7.05;;;;;;;;;;5115996;28;20207;-64
2024/01/17 13:26:53;;;;;;;7.40;6.70;;;;;;;;;;5115073;28;20199;-64
2024/01/17 13:29:20;;;;;;;7.93;7.18;;;;;;;;;;5115440;28;20214;-64
2024/01/17 13:31:49;;;;;;;13.60;11.10;;;;;;;;;;5115461;28;20195;-64
2024/01/17 13:34:17;;;;;;;11.15;9.48;;;;;;;;;;5116076;28;20593;-64
2024/01/17 13:36:44;;;;;;;10.85;9.75;;;;;;;;;;5115672;28;20226;-64
2024/01/17 13:39:12;;;;;;;11.20;9.93;;;;;;;;;;5115502;28;20203;-64
2024/01/17 13:41:41;;;;;;;9.95;8.75;;;;;;;;;;5116424;28;20207;-64
2024/01/17 13:44:11;;;;;;;10.77;9.10;;;;;;;;;;5115977;28;20633;-64
2024/01/17 13:46:39;;;;;;;12.40;11.10;;;;;;;;;;5114995;28;20205;-64
2024/01/17 13:49:07;;;;;;;13.20;11.90;;;;;;;;;;5116428;28;20203;-64
2024/01/17 13:51:43;;;;;;;14.68;12.85;;;;;;;;;;5115925;28;20210;-64
2024/01/17 13:54:15;;;;;;;13.32;12.00;;;;;;;;;;5116039;28;20213;-64
2024/01/17 13:56:43;;;;;;;13.55;11.77;;;;;;;;;;5115291;28;20219;-64
2024/01/17 13:59:10;;;;;;;13.73;11.85;;;;;;;;;;5114721;28;20289;-65
2024/01/17 14:01:38;;;;;;;13.00;11.05;;;;;;;;;;5136251;27;20206;-64
2024/01/17 14:04:06;;;;;;;12.77;11.13;;;;;;;;;;5136091;27;20202;-64
2024/01/17 14:06:35;;;;;;;21.92;17.30;;;;;;;;;;5136053;27;20198;-64
2024/01/17 14:09:06;;;;;;;68.35;48.63;;;;;;;;;;5135705;27;20673;-64
2024/01/17 14:11:35;;;;;;;61.15;47.85;;;;;;;;;;5134220;27;20237;-64
2024/01/17 14:14:05;;;;;;;51.67;39.72;;;;;;;;;;5135476;27;20208;-64
2024/01/17 14:16:32;;;;;;;50.80;38.35;;;;;;;;;;5135325;27;20303;-64
2024/01/17 14:19:00;;;;;;;58.90;46.83;;;;;;;;;;5134424;27;20209;-64
2024/01/17 14:21:27;;;;;;;62.35;48.53;;;;;;;;;;5134773;27;20202;-64
2024/01/17 14:23:56;;;;;;;63.45;53.72;;;;;;;;;;5134880;27;20203;-64
2024/01/17 14:26:23;;;;;;;59.00;49.60;;;;;;;;;;5135164;27;20213;-64
2024/01/17 14:28:52;;;;;;;55.45;47.50;;;;;;;;;;5134564;27;20446;-64
2024/01/17 14:31:19;;;;;;;54.10;46.30;;;;;;;;;;5135164;27;20482;-64
2024/01/17 14:33:48;;;;;;;50.90;44.72;;;;;;;;;;5135573;27;20575;-64
2024/01/17 14:36:15;;;;;;;51.13;45.40;;;;;;;;;;5134480;27;20230;-64
2024/01/17 14:38:43;;;;;;;53.85;42.90;;;;;;;;;;5133881;27;20206;-64
2024/01/17 14:41:12;;;;;;;46.92;40.47;;;;;;;;;;5133860;27;20217;-64
2024/01/17 14:43:39;;;;;;;47.17;40.78;;;;;;;;;;5135213;27;20209;-64
2024/01/17 14:46:07;;;;;;;46.47;39.78;;;;;;;;;;5134825;27;20206;-65